Saint Marie, Montana
Current Conditions -  °F | °C
As of 5:53 PM on Tuesday 21 Oct 2014 (Local Time) from KGGW Reporting Station
Clear Clear  
Wind Chill: 17°   Ceiling: Unl
Heat Index: 17°   Visibility: 10mi
Dew Point:   Wind: 8mph
Humidity: 46%   Direction: 360°N
Pressure: 29.56"   Gusts: NA
Location:  48.4°N, 106.55°W
Report Text: KGGW 212353Z AUTO 36007KT 10SM CLR 17/06 A2956 RMK AO2 SLP013 T01720056 10244 20172 50003
Loading
Personal Weather Stations






























Interactive Weather Map
Tropical Storm Tracking
New forecast layout! Learn more

10-Day Weather Forecast

Advertisements
Track Severe Weather on mobile